sensor_id;sensor_type;location;lat;lon;timestamp;pressure;altitude;pressure_sealevel;temperature;humidity
50349;BME280;36250;48.740;22.174;2022-09-09T00:01:16;100018.81;;;18.65;100.00
50349;BME280;36250;48.740;22.174;2022-09-09T00:04:23;100002.50;;;18.67;100.00
50349;BME280;36250;48.740;22.174;2022-09-09T00:09:31;99985.00;;;18.64;100.00
50349;BME280;36250;48.740;22.174;2022-09-09T00:12:06;99987.69;;;18.64;100.00
50349;BME280;36250;48.740;22.174;2022-09-09T00:14:59;99986.97;;;18.69;100.00
50349;BME280;36250;48.740;22.174;2022-09-09T00:17:35;99995.81;;;18.70;100.00
50349;BME280;36250;48.740;22.174;2022-09-09T00:22:30;99986.69;;;18.71;100.00
50349;BME280;36250;48.740;22.174;2022-09-09T00:25:16;99986.47;;;18.72;100.00
50349;BME280;36250;48.740;22.174;2022-09-09T00:27:47;99986.47;;;18.72;100.00
50349;BME280;36250;48.740;22.174;2022-09-09T00:32:44;99995.06;;;18.74;100.00
50349;BME280;36250;48.740;22.174;2022-09-09T00:37:35;99982.44;;;18.75;100.00
50349;BME280;36250;48.740;22.174;2022-09-09T00:40:02;99976.22;;;18.69;100.00
50349;BME280;36250;48.740;22.174;2022-09-09T00:42:40;99980.78;;;18.68;100.00
50349;BME280;36250;48.740;22.174;2022-09-09T00:48:11;99974.91;;;18.72;100.00
50349;BME280;36250;48.740;22.174;2022-09-09T00:55:56;99980.72;;;18.63;100.00
50349;BME280;36250;48.740;22.174;2022-09-09T00:58:25;99979.91;;;18.63;100.00
50349;BME280;36250;48.740;22.174;2022-09-09T01:00:57;99979.34;;;18.61;100.00
50349;BME280;36250;48.740;22.174;2022-09-09T01:03:37;99982.03;;;18.61;100.00
50349;BME280;36250;48.740;22.174;2022-09-09T01:06:16;99994.94;;;18.64;100.00
50349;BME280;36250;48.740;22.174;2022-09-09T01:11:26;99980.41;;;18.60;100.00
50349;BME280;36250;48.740;22.174;2022-09-09T01:16:38;99995.34;;;18.56;100.00
50349;BME280;36250;48.740;22.174;2022-09-09T01:19:09;99977.41;;;18.56;100.00
50349;BME280;36250;48.740;22.174;2022-09-09T01:22:16;99968.63;;;18.61;100.00
50349;BME280;36250;48.740;22.174;2022-09-09T01:27:34;99964.75;;;18.51;100.00
50349;BME280;36250;48.740;22.174;2022-09-09T01:30:04;99957.53;;;18.52;100.00
50349;BME280;36250;48.740;22.174;2022-09-09T01:32:42;99966.84;;;18.49;100.00
50349;BME280;36250;48.740;22.174;2022-09-09T01:35:11;99965.25;;;18.48;100.00
50349;BME280;36250;48.740;22.174;2022-09-09T01:37:38;99954.50;;;18.48;100.00
50349;BME280;36250;48.740;22.174;2022-09-09T01:40:03;99944.06;;;18.47;100.00
50349;BME280;36250;48.740;22.174;2022-09-09T01:42:29;99957.97;;;18.44;100.00
50349;BME280;36250;48.740;22.174;2022-09-09T01:44:54;99975.03;;;18.37;100.00
50349;BME280;36250;48.740;22.174;2022-09-09T01:47:20;99960.25;;;18.35;100.00
50349;BME280;36250;48.740;22.174;2022-09-09T01:49:45;99961.53;;;18.32;100.00
50349;BME280;36250;48.740;22.174;2022-09-09T01:52:11;99973.59;;;18.30;100.00
50349;BME280;36250;48.740;22.174;2022-09-09T01:54:36;99977.00;;;18.25;100.00
50349;BME280;36250;48.740;22.174;2022-09-09T01:57:24;99963.59;;;18.25;100.00
50349;BME280;36250;48.740;22.174;2022-09-09T02:02:36;99964.38;;;18.20;100.00
50349;BME280;36250;48.740;22.174;2022-09-09T02:08:03;99969.47;;;18.22;100.00
50349;BME280;36250;48.740;22.174;2022-09-09T02:10:46;99977.00;;;18.25;100.00
50349;BME280;36250;48.740;22.174;2022-09-09T02:13:17;99970.84;;;18.24;100.00
50349;BME280;36250;48.740;22.174;2022-09-09T02:16:12;99977.34;;;18.29;100.00
50349;BME280;36250;48.740;22.174;2022-09-09T02:18:49;99976.28;;;18.30;100.00
50349;BME280;36250;48.740;22.174;2022-09-09T02:21:17;99978.69;;;18.31;100.00
50349;BME280;36250;48.740;22.174;2022-09-09T02:23:44;99980.31;;;18.32;100.00
50349;BME280;36250;48.740;22.174;2022-09-09T02:26:12;99984.63;;;18.33;100.00
50349;BME280;36250;48.740;22.174;2022-09-09T02:28:44;99979.81;;;18.35;100.00
50349;BME280;36250;48.740;22.174;2022-09-09T02:31:11;99990.53;;;18.35;100.00
50349;BME280;36250;48.740;22.174;2022-09-09T02:33:42;99984.16;;;18.36;100.00
50349;BME280;36250;48.740;22.174;2022-09-09T02:36:10;99988.19;;;18.39;100.00
50349;BME280;36250;48.740;22.174;2022-09-09T02:38:41;99994.38;;;18.39;100.00
50349;BME280;36250;48.740;22.174;2022-09-09T02:41:08;99990.06;;;18.38;100.00
50349;BME280;36250;48.740;22.174;2022-09-09T02:43:34;99990.31;;;18.37;100.00
50349;BME280;36250;48.740;22.174;2022-09-09T02:51:14;100009.56;;;18.34;100.00
50349;BME280;36250;48.740;22.174;2022-09-09T02:53:54;100014.38;;;18.32;100.00
50349;BME280;36250;48.740;22.174;2022-09-09T02:56:24;100005.28;;;18.33;100.00
50349;BME280;36250;48.740;22.174;2022-09-09T02:58:50;100007.38;;;18.31;100.00
50349;BME280;36250;48.740;22.174;2022-09-09T03:01:17;100015.66;;;18.29;100.00
50349;BME280;36250;48.740;22.174;2022-09-09T03:03:42;99999.84;;;18.28;100.00
50349;BME280;36250;48.740;22.174;2022-09-09T03:06:09;99999.56;;;18.29;100.00
50349;BME280;36250;48.740;22.174;2022-09-09T03:08:37;99998.28;;;18.32;100.00
50349;BME280;36250;48.740;22.174;2022-09-09T03:11:02;99997.78;;;18.35;100.00
50349;BME280;36250;48.740;22.174;2022-09-09T03:13:28;99994.53;;;18.33;100.00
50349;BME280;36250;48.740;22.174;2022-09-09T03:15:53;99993.41;;;18.29;100.00
50349;BME280;36250;48.740;22.174;2022-09-09T03:18:18;99989.69;;;18.30;100.00
50349;BME280;36250;48.740;22.174;2022-09-09T03:20:46;99994.72;;;18.26;100.00
50349;BME280;36250;48.740;22.174;2022-09-09T03:23:13;99993.66;;;18.27;100.00
50349;BME280;36250;48.740;22.174;2022-09-09T03:25:39;99996.34;;;18.27;100.00
50349;BME280;36250;48.740;22.174;2022-09-09T03:28:04;99998.22;;;18.27;100.00
50349;BME280;36250;48.740;22.174;2022-09-09T03:30:30;99997.97;;;18.28;100.00
50349;BME280;36250;48.740;22.174;2022-09-09T03:32:55;100001.97;;;18.26;100.00
50349;BME280;36250;48.740;22.174;2022-09-09T03:35:21;100009.66;;;18.22;100.00
50349;BME280;36250;48.740;22.174;2022-09-09T03:37:46;100002.69;;;18.21;100.00
50349;BME280;36250;48.740;22.174;2022-09-09T03:40:12;100004.56;;;18.20;100.00
50349;BME280;36250;48.740;22.174;2022-09-09T03:42:38;99999.78;;;18.22;100.00
50349;BME280;36250;48.740;22.174;2022-09-09T03:45:06;99998.72;;;18.23;100.00
50349;BME280;36250;48.740;22.174;2022-09-09T03:47:32;99989.63;;;18.24;100.00
50349;BME280;36250;48.740;22.174;2022-09-09T03:49:58;99982.69;;;18.29;100.00
50349;BME280;36250;48.740;22.174;2022-09-09T03:52:23;99988.84;;;18.29;100.00
50349;BME280;36250;48.740;22.174;2022-09-09T03:54:52;99992.03;;;18.26;100.00
50349;BME280;36250;48.740;22.174;2022-09-09T03:57:18;99991.81;;;18.28;100.00
50349;BME280;36250;48.740;22.174;2022-09-09T03:59:43;99986.44;;;18.28;100.00
50349;BME280;36250;48.740;22.174;2022-09-09T04:02:09;99988.28;;;18.27;100.00
50349;BME280;36250;48.740;22.174;2022-09-09T04:04:35;99992.34;;;18.30;100.00
50349;BME280;36250;48.740;22.174;2022-09-09T04:07:00;100000.97;;;18.32;100.00
50349;BME280;36250;48.740;22.174;2022-09-09T04:09:26;100005.75;;;18.30;100.00
50349;BME280;36250;48.740;22.174;2022-09-09T04:11:51;100001.19;;;18.30;100.00
50349;BME280;36250;48.740;22.174;2022-09-09T04:14:18;99997.22;;;18.33;100.00
50349;BME280;36250;48.740;22.174;2022-09-09T04:16:43;99997.22;;;18.33;100.00
50349;BME280;36250;48.740;22.174;2022-09-09T04:19:10;99996.16;;;18.34;100.00
50349;BME280;36250;48.740;22.174;2022-09-09T04:21:38;99998.84;;;18.34;100.00
50349;BME280;36250;48.740;22.174;2022-09-09T04:24:05;99996.09;;;18.29;100.00
50349;BME280;36250;48.740;22.174;2022-09-09T04:26:31;100000.13;;;18.31;100.00
50349;BME280;36250;48.740;22.174;2022-09-09T04:28:56;100000.97;;;18.32;100.00
50349;BME280;36250;48.740;22.174;2022-09-09T04:31:22;100009.00;;;18.32;100.00
50349;BME280;36250;48.740;22.174;2022-09-09T04:33:51;100001.75;;;18.32;100.00
50349;BME280;36250;48.740;22.174;2022-09-09T04:36:17;100006.31;;;18.32;100.00
50349;BME280;36250;48.740;22.174;2022-09-09T04:38:44;100012.25;;;18.34;100.00
50349;BME280;36250;48.740;22.174;2022-09-09T04:41:10;100009.31;;;18.35;100.00
50349;BME280;36250;48.740;22.174;2022-09-09T04:43:36;100010.63;;;18.33;100.00
50349;BME280;36250;48.740;22.174;2022-09-09T04:46:02;100012.75;;;18.31;100.00
50349;BME280;36250;48.740;22.174;2022-09-09T04:48:28;100010.31;;;18.29;100.00
50349;BME280;36250;48.740;22.174;2022-09-09T04:51:13;100018.34;;;18.29;100.00
50349;BME280;36250;48.740;22.174;2022-09-09T04:53:39;100025.03;;;18.27;100.00
50349;BME280;36250;48.740;22.174;2022-09-09T04:56:10;100029.00;;;18.24;100.00
50349;BME280;36250;48.740;22.174;2022-09-09T04:58:36;100026.31;;;18.24;100.00
50349;BME280;36250;48.740;22.174;2022-09-09T05:01:06;100029.81;;;18.24;100.00
50349;BME280;36250;48.740;22.174;2022-09-09T05:03:31;100025.25;;;18.25;100.00
50349;BME280;36250;48.740;22.174;2022-09-09T05:06:08;100038.44;;;18.27;100.00
50349;BME280;36250;48.740;22.174;2022-09-09T05:08:36;100039.78;;;18.29;100.00
50349;BME280;36250;48.740;22.174;2022-09-09T05:11:02;100038.72;;;18.30;100.00
50349;BME280;36250;48.740;22.174;2022-09-09T05:13:28;100041.66;;;18.29;100.00
50349;BME280;36250;48.740;22.174;2022-09-09T05:15:54;100042.97;;;18.26;100.00
50349;BME280;36250;48.740;22.174;2022-09-09T05:18:20;100041.34;;;18.25;100.00
50349;BME280;36250;48.740;22.174;2022-09-09T05:20:46;100042.16;;;18.26;100.00
50349;BME280;36250;48.740;22.174;2022-09-09T05:23:12;100048.88;;;18.28;100.00
50349;BME280;36250;48.740;22.174;2022-09-09T05:25:38;100046.47;;;18.27;100.00
50349;BME280;36250;48.740;22.174;2022-09-09T05:28:03;100047.03;;;18.29;100.00
50349;BME280;36250;48.740;22.174;2022-09-09T05:30:29;100046.22;;;18.28;100.00
50349;BME280;36250;48.740;22.174;2022-09-09T05:32:57;100054.50;;;18.27;100.00
50349;BME280;36250;48.740;22.174;2022-09-09T05:35:22;100045.97;;;18.30;100.00
50349;BME280;36250;48.740;22.174;2022-09-09T05:37:48;100043.28;;;18.30;100.00
50349;BME280;36250;48.740;22.174;2022-09-09T05:40:14;100046.22;;;18.28;100.00
50349;BME280;36250;48.740;22.174;2022-09-09T05:42:39;100047.53;;;18.26;100.00
50349;BME280;36250;48.740;22.174;2022-09-09T05:45:06;100047.19;;;18.22;100.00
50349;BME280;36250;48.740;22.174;2022-09-09T05:47:33;100053.63;;;18.21;100.00
50349;BME280;36250;48.740;22.174;2022-09-09T05:49:58;100062.22;;;18.23;100.00
50349;BME280;36250;48.740;22.174;2022-09-09T05:52:23;100053.94;;;18.24;100.00
50349;BME280;36250;48.740;22.174;2022-09-09T05:54:50;100059.03;;;18.26;100.00
50349;BME280;36250;48.740;22.174;2022-09-09T05:57:16;100051.06;;;18.31;100.00
50349;BME280;36250;48.740;22.174;2022-09-09T05:59:42;100048.00;;;18.39;100.00
50349;BME280;36250;48.740;22.174;2022-09-09T06:02:08;100057.16;;;18.44;100.00
50349;BME280;36250;48.740;22.174;2022-09-09T06:04:33;100047.06;;;18.51;100.00
50349;BME280;36250;48.740;22.174;2022-09-09T06:06:59;100053.41;;;18.62;100.00
50349;BME280;36250;48.740;22.174;2022-09-09T06:09:24;100047.03;;;18.68;100.00
50349;BME280;36250;48.740;22.174;2022-09-09T06:11:50;100048.38;;;18.71;100.00
50349;BME280;36250;48.740;22.174;2022-09-09T06:14:15;100051.91;;;18.71;100.00
50349;BME280;36250;48.740;22.174;2022-09-09T06:16:43;100052.06;;;18.64;100.00
50349;BME280;36250;48.740;22.174;2022-09-09T06:19:09;100055.03;;;18.63;100.00
50349;BME280;36250;48.740;22.174;2022-09-09T06:21:36;100054.53;;;18.66;100.00
50349;BME280;36250;48.740;22.174;2022-09-09T06:24:03;100048.66;;;18.69;100.00
50349;BME280;36250;48.740;22.174;2022-09-09T06:26:33;100053.09;;;18.80;100.00
50349;BME280;36250;48.740;22.174;2022-09-09T06:29:00;100060.13;;;18.87;100.00
50349;BME280;36250;48.740;22.174;2022-09-09T06:31:27;100059.94;;;18.93;100.00
50349;BME280;36250;48.740;22.174;2022-09-09T06:33:56;100057.91;;;19.01;100.00
50349;BME280;36250;48.740;22.174;2022-09-09T06:36:25;100056.63;;;19.03;100.00
50349;BME280;36250;48.740;22.174;2022-09-09T06:38:51;100060.41;;;19.07;100.00
50349;BME280;36250;48.740;22.174;2022-09-09T06:41:18;100062.03;;;19.08;100.00
50349;BME280;36250;48.740;22.174;2022-09-09T06:43:45;100060.41;;;19.07;100.00
50349;BME280;36250;48.740;22.174;2022-09-09T06:46:15;100065.78;;;19.07;100.00
50349;BME280;36250;48.740;22.174;2022-09-09T06:48:42;100061.16;;;19.03;100.00
50349;BME280;36250;48.740;22.174;2022-09-09T06:51:20;100067.41;;;19.08;100.00
50349;BME280;36250;48.740;22.174;2022-09-09T06:53:47;100067.69;;;19.12;100.00
50349;BME280;36250;48.740;22.174;2022-09-09T06:56:24;100066.13;;;19.16;100.00
50349;BME280;36250;48.740;22.174;2022-09-09T06:58:51;100072.44;;;19.27;100.00
50349;BME280;36250;48.740;22.174;2022-09-09T07:01:19;100067.34;;;19.25;100.00
50349;BME280;36250;48.740;22.174;2022-09-09T07:03:46;100071.09;;;19.24;100.00
50349;BME280;36250;48.740;22.174;2022-09-09T07:06:18;100085.13;;;19.32;100.00
50349;BME280;36250;48.740;22.174;2022-09-09T07:08:44;100083.22;;;19.32;100.00
50349;BME280;36250;48.740;22.174;2022-09-09T07:11:13;100086.41;;;19.29;100.00
50349;BME280;36250;48.740;22.174;2022-09-09T07:13:38;100085.13;;;19.32;100.00
50349;BME280;36250;48.740;22.174;2022-09-09T07:18:30;100094.84;;;19.38;100.00
50349;BME280;36250;48.740;22.174;2022-09-09T07:20:56;100095.22;;;19.47;100.00
50349;BME280;36250;48.740;22.174;2022-09-09T07:23:30;100093.94;;;19.54;100.00
50349;BME280;36250;48.740;22.174;2022-09-09T07:25:57;100101.75;;;19.56;100.00
50349;BME280;36250;48.740;22.174;2022-09-09T07:28:23;100104.94;;;19.53;100.00
50349;BME280;36250;48.740;22.174;2022-09-09T07:30:56;100102.16;;;19.43;100.00
50349;BME280;36250;48.740;22.174;2022-09-09T07:33:23;100101.59;;;19.40;100.00
50349;BME280;36250;48.740;22.174;2022-09-09T07:35:49;100105.91;;;19.42;100.00
50349;BME280;36250;48.740;22.174;2022-09-09T07:38:14;100106.88;;;19.35;100.00
50349;BME280;36250;48.740;22.174;2022-09-09T07:40:40;100105.81;;;19.36;100.00
50349;BME280;36250;48.740;22.174;2022-09-09T07:43:05;100109.34;;;19.37;100.00
50349;BME280;36250;48.740;22.174;2022-09-09T07:45:31;100108.50;;;19.36;100.00
50349;BME280;36250;48.740;22.174;2022-09-09T07:47:58;100117.16;;;19.38;100.00
50349;BME280;36250;48.740;22.174;2022-09-09T07:50:24;100111.78;;;19.38;100.00
50349;BME280;36250;48.740;22.174;2022-09-09T07:52:53;100108.88;;;19.45;100.00
50349;BME280;36250;48.740;22.174;2022-09-09T07:55:22;100109.44;;;19.47;100.00
50349;BME280;36250;48.740;22.174;2022-09-09T07:57:51;100112.41;;;19.46;100.00
50349;BME280;36250;48.740;22.174;2022-09-09T08:00:16;100109.91;;;19.39;100.00
50349;BME280;36250;48.740;22.174;2022-09-09T08:02:41;100119.69;;;19.28;100.00
50349;BME280;36250;48.740;22.174;2022-09-09T08:05:07;100124.84;;;19.30;100.00
50349;BME280;36250;48.740;22.174;2022-09-09T08:07:32;100121.66;;;19.33;100.00
50349;BME280;36250;48.740;22.174;2022-09-09T08:09:58;100122.66;;;19.27;100.00
50349;BME280;36250;48.740;22.174;2022-09-09T08:12:23;100124.97;;;19.18;100.00
50349;BME280;36250;48.740;22.174;2022-09-09T08:14:49;100132.69;;;19.14;100.00
50349;BME280;36250;48.740;22.174;2022-09-09T08:17:14;100136.69;;;19.11;100.00
50349;BME280;36250;48.740;22.174;2022-09-09T08:19:40;100132.88;;;19.07;100.00
50349;BME280;36250;48.740;22.174;2022-09-09T08:22:05;100136.44;;;19.13;100.00
50349;BME280;36250;48.740;22.174;2022-09-09T08:24:30;100138.63;;;19.16;100.00
50349;BME280;36250;48.740;22.174;2022-09-09T08:26:56;100139.38;;;19.11;100.00
50349;BME280;36250;48.740;22.174;2022-09-09T08:29:22;100140.69;;;18.92;100.00
50349;BME280;36250;48.740;22.174;2022-09-09T08:31:52;100135.06;;;18.71;100.00
50349;BME280;36250;48.740;22.174;2022-09-09T08:34:19;100144.97;;;18.53;100.00
50349;BME280;36250;48.740;22.174;2022-09-09T08:36:46;100144.03;;;18.43;100.00
50349;BME280;36250;48.740;22.174;2022-09-09T08:39:14;100142.06;;;18.38;100.00
50349;BME280;36250;48.740;22.174;2022-09-09T08:56:08;100140.59;;;18.13;100.00
50349;BME280;36250;48.740;22.174;2022-09-09T08:58:17;100131.75;;;18.13;100.00
50349;BME280;36250;48.740;22.174;2022-09-09T09:11:40;100134.97;;;17.98;100.00
50349;BME280;36250;48.740;22.174;2022-09-09T09:14:23;100135.44;;;17.94;100.00
50349;BME280;36250;48.740;22.174;2022-09-09T09:19:29;100146.72;;;17.96;100.00
50349;BME280;36250;48.740;22.174;2022-09-09T09:22:06;100142.53;;;18.01;100.00
50349;BME280;36250;48.740;22.174;2022-09-09T09:27:40;100138.19;;;18.00;100.00
50349;BME280;36250;48.740;22.174;2022-09-09T09:30:18;100144.81;;;18.09;100.00
50349;BME280;36250;48.740;22.174;2022-09-09T09:35:17;100148.81;;;18.23;100.00
50349;BME280;36250;48.740;22.174;2022-09-09T09:37:43;100149.31;;;18.20;100.00
50349;BME280;36250;48.740;22.174;2022-09-09T09:40:17;100149.06;;;18.22;100.00
50349;BME280;36250;48.740;22.174;2022-09-09T09:42:51;100148.56;;;18.25;100.00
50349;BME280;36250;48.740;22.174;2022-09-09T09:45:43;100149.56;;;18.36;100.00
50349;BME280;36250;48.740;22.174;2022-09-09T09:48:11;100146.38;;;18.39;100.00
50349;BME280;36250;48.740;22.174;2022-09-09T09:50:59;100147.78;;;18.42;100.00
50349;BME280;36250;48.740;22.174;2022-09-09T09:53:31;100146.03;;;18.52;100.00
50349;BME280;36250;48.740;22.174;2022-09-09T09:56:11;100151.25;;;18.59;100.00
50349;BME280;36250;48.740;22.174;2022-09-09T09:58:50;100146.78;;;18.65;100.00
50349;BME280;36250;48.740;22.174;2022-09-09T10:01:28;100144.97;;;18.71;100.00
50349;BME280;36250;48.740;22.174;2022-09-09T10:04:02;100146.69;;;18.77;100.00
50349;BME280;36250;48.740;22.174;2022-09-09T10:06:36;100155.38;;;18.84;100.00
50349;BME280;36250;48.740;22.174;2022-09-09T10:09:04;100142.03;;;18.89;100.00
50349;BME280;36250;48.740;22.174;2022-09-09T10:14:24;100149.50;;;19.04;100.00
50349;BME280;36250;48.740;22.174;2022-09-09T10:17:15;100148.84;;;18.97;100.00
50349;BME280;36250;48.740;22.174;2022-09-09T10:22:27;100145.56;;;18.95;100.00
50349;BME280;36250;48.740;22.174;2022-09-09T10:30:19;100138.69;;;19.21;100.00
50349;BME280;36250;48.740;22.174;2022-09-09T10:32:57;100143.41;;;19.36;100.00
50349;BME280;36250;48.740;22.174;2022-09-09T10:49:00;100155.91;;;20.30;100.00
50349;BME280;36250;48.740;22.174;2022-09-09T10:52:00;100160.59;;;20.45;100.00
50349;BME280;36250;48.740;22.174;2022-09-09T10:57:28;100164.03;;;20.73;100.00
50349;BME280;36250;48.740;22.174;2022-09-09T10:59:59;100164.16;;;20.89;100.00
50349;BME280;36250;48.740;22.174;2022-09-09T11:02:30;100172.78;;;20.91;100.00
50349;BME280;36250;48.740;22.174;2022-09-09T11:07:39;100169.84;;;20.92;100.00
50349;BME280;36250;48.740;22.174;2022-09-09T11:10:24;100170.38;;;20.94;100.00
50349;BME280;36250;48.740;22.174;2022-09-09T11:12:55;100170.09;;;20.96;100.00
50349;BME280;36250;48.740;22.174;2022-09-09T11:15:35;100172.88;;;21.11;100.00
50349;BME280;36250;48.740;22.174;2022-09-09T11:18:04;100176.16;;;21.24;100.00
50349;BME280;36250;48.740;22.174;2022-09-09T11:20:30;100174.59;;;21.33;100.00
50349;BME280;36250;48.740;22.174;2022-09-09T11:23:13;100161.00;;;21.66;100.00
50349;BME280;36250;48.740;22.174;2022-09-09T11:25:49;100160.22;;;22.07;100.00
50349;BME280;36250;48.740;22.174;2022-09-09T11:38:52;100155.00;;;23.04;99.56
50349;BME280;36250;48.740;22.174;2022-09-09T11:41:20;100163.03;;;23.19;100.00
50349;BME280;36250;48.740;22.174;2022-09-09T11:43:46;100154.94;;;23.29;98.03
50349;BME280;36250;48.740;22.174;2022-09-09T11:46:15;100162.03;;;23.05;97.26
50349;BME280;36250;48.740;22.174;2022-09-09T11:49:00;100162.34;;;22.88;95.25
50349;BME280;36250;48.740;22.174;2022-09-09T11:51:27;100163.16;;;22.88;96.12
50349;BME280;36250;48.740;22.174;2022-09-09T11:53:54;100149.53;;;23.24;94.45
50349;BME280;36250;48.740;22.174;2022-09-09T11:56:43;100150.22;;;23.56;91.95
50349;BME280;36250;48.740;22.174;2022-09-09T11:59:27;100139.50;;;23.80;87.76
50349;BME280;36250;48.740;22.174;2022-09-09T12:02:10;100145.13;;;23.89;88.38
50349;BME280;36250;48.740;22.174;2022-09-09T12:04:40;100143.94;;;24.06;87.25
50349;BME280;36250;48.740;22.174;2022-09-09T12:09:50;100151.06;;;23.91;85.04
50349;BME280;36250;48.740;22.174;2022-09-09T12:12:32;100147.09;;;23.78;85.52
50349;BME280;36250;48.740;22.174;2022-09-09T12:15:24;100141.63;;;23.88;85.97
50349;BME280;36250;48.740;22.174;2022-09-09T12:17:52;100138.59;;;23.95;85.10
50349;BME280;36250;48.740;22.174;2022-09-09T12:20:33;100138.00;;;24.04;85.19
50349;BME280;36250;48.740;22.174;2022-09-09T12:23:22;100129.38;;;23.96;84.28
50349;BME280;36250;48.740;22.174;2022-09-09T12:28:54;100128.66;;;23.40;87.62
50349;BME280;36250;48.740;22.174;2022-09-09T12:31:28;100134.16;;;23.14;87.90
50349;BME280;36250;48.740;22.174;2022-09-09T12:34:11;100137.97;;;23.08;88.96
50349;BME280;36250;48.740;22.174;2022-09-09T12:36:39;100140.41;;;23.05;88.95
50349;BME280;36250;48.740;22.174;2022-09-09T12:39:16;100140.91;;;23.12;87.97
50349;BME280;36250;48.740;22.174;2022-09-09T12:41:51;100127.66;;;23.21;87.71
50349;BME280;36250;48.740;22.174;2022-09-09T12:44:20;100131.44;;;23.25;88.58
50349;BME280;36250;48.740;22.174;2022-09-09T12:46:46;100124.13;;;23.20;87.98
50349;BME280;36250;48.740;22.174;2022-09-09T12:49:37;100130.91;;;23.18;88.55
50349;BME280;36250;48.740;22.174;2022-09-09T12:52:06;100133.34;;;23.14;87.48
50349;BME280;36250;48.740;22.174;2022-09-09T12:54:36;100136.06;;;23.14;89.26
50349;BME280;36250;48.740;22.174;2022-09-09T12:57:02;100125.47;;;23.23;88.42
50349;BME280;36250;48.740;22.174;2022-09-09T12:59:37;100125.97;;;23.35;87.84
50349;BME280;36250;48.740;22.174;2022-09-09T13:02:24;100119.75;;;23.40;88.48
50349;BME280;36250;48.740;22.174;2022-09-09T13:04:50;100125.44;;;23.38;87.50
50349;BME280;36250;48.740;22.174;2022-09-09T13:07:19;100124.59;;;23.43;87.72
50349;BME280;36250;48.740;22.174;2022-09-09T13:09:48;100119.50;;;23.36;86.89
50349;BME280;36250;48.740;22.174;2022-09-09T13:12:17;100124.94;;;23.31;87.62
50349;BME280;36250;48.740;22.174;2022-09-09T13:14:45;100133.59;;;23.28;88.58
50349;BME280;36250;48.740;22.174;2022-09-09T13:17:18;100132.50;;;23.24;87.51
50349;BME280;36250;48.740;22.174;2022-09-09T13:19:45;100123.34;;;23.20;87.48
50349;BME280;36250;48.740;22.174;2022-09-09T13:22:24;100117.44;;;23.12;87.32
50349;BME280;36250;48.740;22.174;2022-09-09T13:27:39;100102.53;;;23.31;85.68
50349;BME280;36250;48.740;22.174;2022-09-09T13:30:22;100108.16;;;23.34;84.63
50349;BME280;36250;48.740;22.174;2022-09-09T13:35:49;100097.84;;;23.41;81.60
50349;BME280;36250;48.740;22.174;2022-09-09T13:38:16;100104.78;;;23.58;81.76
50349;BME280;36250;48.740;22.174;2022-09-09T13:40:54;100102.44;;;23.81;80.65
50349;BME280;36250;48.740;22.174;2022-09-09T13:43:22;100095.78;;;24.08;79.05
50349;BME280;36250;48.740;22.174;2022-09-09T13:45:59;100086.47;;;24.19;77.49
50349;BME280;36250;48.740;22.174;2022-09-09T13:48:25;100085.56;;;24.29;75.77
50349;BME280;36250;48.740;22.174;2022-09-09T13:50:59;100083.06;;;24.08;74.95
50349;BME280;36250;48.740;22.174;2022-09-09T13:53:25;100079.13;;;23.90;77.92
50349;BME280;36250;48.740;22.174;2022-09-09T13:55:50;100075.34;;;23.86;78.85
50349;BME280;36250;48.740;22.174;2022-09-09T13:58:17;100073.72;;;23.90;76.83
50349;BME280;36250;48.740;22.174;2022-09-09T14:00:48;100078.06;;;23.86;77.41
50349;BME280;36250;48.740;22.174;2022-09-09T14:03:15;100079.63;;;23.97;76.25
50349;BME280;36250;48.740;22.174;2022-09-09T14:05:40;100076.22;;;24.16;75.68
50349;BME280;36250;48.740;22.174;2022-09-09T14:08:07;100067.78;;;24.23;76.02
50349;BME280;36250;48.740;22.174;2022-09-09T14:10:38;100068.72;;;24.37;74.29
50349;BME280;36250;48.740;22.174;2022-09-09T14:13:04;100066.06;;;24.32;74.76
50349;BME280;36250;48.740;22.174;2022-09-09T14:15:29;100073.59;;;24.35;73.99
50349;BME280;36250;48.740;22.174;2022-09-09T14:17:54;100075.66;;;24.19;74.20
50349;BME280;36250;48.740;22.174;2022-09-09T14:20:20;100080.13;;;24.05;74.97
50349;BME280;36250;48.740;22.174;2022-09-09T14:22:45;100079.63;;;23.97;76.07
50349;BME280;36250;48.740;22.174;2022-09-09T14:25:11;100084.03;;;23.88;76.68
50349;BME280;36250;48.740;22.174;2022-09-09T14:27:38;100097.78;;;23.92;77.31
50349;BME280;36250;48.740;22.174;2022-09-09T14:30:05;100087.41;;;24.04;75.79
50349;BME280;36250;48.740;22.174;2022-09-09T14:32:30;100074.34;;;24.16;75.92
50349;BME280;36250;48.740;22.174;2022-09-09T14:34:55;100061.19;;;24.05;76.14
50349;BME280;36250;48.740;22.174;2022-09-09T14:37:21;100059.69;;;23.48;77.79
50349;BME280;36250;48.740;22.174;2022-09-09T14:39:46;100060.13;;;23.26;80.07
50349;BME280;36250;48.740;22.174;2022-09-09T14:42:13;100059.31;;;23.15;80.73
50349;BME280;36250;48.740;22.174;2022-09-09T14:44:39;100056.59;;;23.20;80.91
50349;BME280;36250;48.740;22.174;2022-09-09T14:47:06;100056.03;;;23.23;81.53
50349;BME280;36250;48.740;22.174;2022-09-09T14:49:33;100049.44;;;22.95;82.93
50349;BME280;36250;48.740;22.174;2022-09-09T14:51:58;100056.56;;;22.75;83.50
50349;BME280;36250;48.740;22.174;2022-09-09T14:54:24;100063.09;;;22.53;85.71